This is the latest recevied weather packets stored in our database for station/object N7TUG. If no packets are shown the sender has not sent any weather packets the latest 10 day(s).
| Time | Temp. | Humidity | Pressure | Rain* | Wind** | Luminosity | Snow |
|---|---|---|---|---|---|---|---|
| 1777512935 | 16.67° C | 69% | 1021.7 hPa | 0 mm | - | 167 W/m² | - |
| 1777509915 | 16.11° C | 71% | 1022 hPa | 0 mm | - | 314 W/m² | - |
| 1777506915 | 16.67° C | 70% | 1022.1 hPa | 0 mm | - | 468 W/m² | - |
| 1777505716 | 16.11° C | 70% | 1022.2 hPa | 0 mm | - | 524 W/m² | - |
| 1777494915 | 15.56° C | 71% | 1023.5 hPa | 0 mm | - | 843 W/m² | - |
| 1777492515 | 15° C | 71% | 1023.9 hPa | 0 mm | - | 846 W/m² | - |
| 1777491315 | 14.44° C | 71% | 1023.9 hPa | 0 mm | - | 838 W/m² | - |
| 1777489515 | 14.44° C | 73% | 1024.2 hPa | 0 mm | - | 816 W/m² | - |
| 1777487115 | 13.89° C | 74% | 1024.6 hPa | 0 mm | - | 757 W/m² | - |
| 1777482315 | 12.22° C | 76% | 1025 hPa | 0 mm | - | 581 W/m² | - |
| 1777470315 | 9.44° C | 82% | 1025.2 hPa | 0 mm | - | 54 W/m² | - |
| 1777469715 | 9.44° C | 84% | 1025.2 hPa | 0 mm | - | 42 W/m² | - |
| 1777461315 | 10° C | 85% | 1024.6 hPa | 0 mm | - | 18 W/m² | - |
| 1777460716 | 10° C | 86% | 1024.7 hPa | 0 mm | - | 18 W/m² | - |
| 1777458315 | 11.11° C | 82% | 1024.5 hPa | 0 mm | - | 18 W/m² | - |
| 1777457715 | 11.11° C | 81% | 1024.5 hPa | 0 mm | - | 18 W/m² | - |
| 1777454115 | 11.67° C | 82% | 1024.4 hPa | 0 mm | - | 18 W/m² | - |
| 1777443315 | 11.67° C | 84% | 1024.1 hPa | 0 mm | - | 18 W/m² | - |
| 1777441514 | 11.11° C | 83% | 1024.1 hPa | 0 mm | - | 18 W/m² | - |
| 1777436736 | 12.22° C | 79% | 1023.7 hPa | 0 mm | - | 18 W/m² | - |
| 1777428936 | 12.22° C | 79% | 1023.1 hPa | 0 mm | - | 47 W/m² | - |
| 1777428335 | 12.78° C | 76% | 1023.1 hPa | 0 mm | - | 53 W/m² | - |
| 1777424716 | 15.56° C | 65% | 1022.9 hPa | 0 mm | - | 76 W/m² | - |
| 1777418115 | 15° C | 66% | 1022.6 hPa | 0 mm | - | 209 W/m² | - |
| 1777417514 | 14.44° C | 67% | 1022.6 hPa | 0 mm | - | 242 W/m² | - |
* Rain latest hour (hover to see other rain measurements)
** Current wind speed in m/s (hover to see current wind gust speed)